Time;durP1;ratioP1;P1;durP2;ratioP2;P2;SDS_P1;SDS_P2;PMS_P1;PMS_P2;Temp;Humidity;BMP_temperature;BMP_pressure;BME280_temperature;BME280_humidity;BME280_pressure;Samples;Min_cycle;Max_cycle;Signal;HPM_P1;HPM_P2
2021/11/15 00:01:05;;;;;;;;;17.50;14.75;;;;;15.03;45.49;99484.25;4783865;29;103723;-88
2021/11/15 00:03:33;;;;;;;;;14.00;11.75;;;;;15.00;45.76;99478.34;4784830;29;103130;-88
2021/11/15 00:06:03;;;;;;;;;12.00;9.75;;;;;15.00;46.07;99481.91;4787284;29;102715;-84
2021/11/15 00:08:30;;;;;;;;;15.25;12.75;;;;;14.98;46.27;99478.59;4806560;29;102315;-89
2021/11/15 00:10:57;;;;;;;;;15.00;12.25;;;;;14.99;46.08;99485.72;4780511;29;109056;-89
2021/11/15 00:13:24;;;;;;;;;14.75;14.75;;;;;14.98;45.74;99484.03;4781136;29;102106;-89
2021/11/15 00:15:51;;;;;;;;;14.50;12.50;;;;;14.98;45.59;99488.63;4807012;29;102625;-89
2021/11/15 00:18:18;;;;;;;;;14.50;12.00;;;;;14.98;45.89;99489.47;4792420;29;102758;-89
2021/11/15 00:20:45;;;;;;;;;13.75;12.50;;;;;14.98;45.67;99494.09;4782706;29;104309;-89
2021/11/15 00:23:12;;;;;;;;;17.00;13.50;;;;;14.99;45.95;99491.16;4797740;29;102203;-89
2021/11/15 00:25:39;;;;;;;;;11.75;10.75;;;;;14.98;45.61;99496.81;4779950;29;102806;-89
2021/11/15 00:28:06;;;;;;;;;12.00;10.25;;;;;14.97;45.72;99493.25;4805204;29;102409;-89
2021/11/15 00:30:33;;;;;;;;;15.25;11.75;;;;;14.97;45.90;99495.97;4789670;29;104061;-88
2021/11/15 00:33:00;;;;;;;;;12.50;11.50;;;;;14.97;45.83;99487.78;4794357;29;105263;-86
2021/11/15 00:35:27;;;;;;;;;10.25;10.00;;;;;14.97;45.50;99495.13;4773448;29;102583;-88
2021/11/15 00:37:54;;;;;;;;;15.50;12.50;;;;;14.96;45.57;99488.84;4802542;29;102512;-88
2021/11/15 00:40:21;;;;;;;;;16.25;12.00;;;;;14.96;45.42;99491.56;4802120;29;104015;-89
2021/11/15 00:42:48;;;;;;;;;14.00;13.50;;;;;14.96;45.71;99494.28;4768445;29;102193;-89
2021/11/15 00:45:17;;;;;;;;;5.25;3.50;;;;;14.96;45.47;99493.44;4802606;29;104946;-89
2021/11/15 00:47:44;;;;;;;;;14.25;10.25;;;;;14.95;45.67;99499.97;4798836;29;102517;-89
2021/11/15 00:50:14;;;;;;;;;16.00;13.50;;;;;14.94;45.58;99504.56;4794422;29;104072;-89
2021/11/15 00:52:41;;;;;;;;;13.25;11.25;;;;;14.92;45.97;99503.06;4809167;29;104196;-89
2021/11/15 00:55:08;;;;;;;;;15.00;9.50;;;;;14.92;46.14;99508.50;4794048;29;102608;-89
2021/11/15 00:57:35;;;;;;;;;14.00;14.00;;;;;14.92;45.78;99512.09;4800794;29;102264;-89
2021/11/15 01:00:04;;;;;;;;;12.25;11.25;;;;;14.92;45.83;99517.53;4803697;29;103989;-88
2021/11/15 01:02:31;;;;;;;;;14.75;10.75;;;;;14.94;45.48;99510.00;4797593;29;105012;-89
2021/11/15 01:04:58;;;;;;;;;12.75;10.00;;;;;14.95;45.89;99517.09;4786998;29;102178;-88
2021/11/15 01:07:25;;;;;;;;;14.25;11.50;;;;;14.95;45.92;99517.09;4780793;29;103860;-89
2021/11/15 01:09:52;;;;;;;;;17.00;13.25;;;;;14.97;45.85;99509.59;4802278;29;104310;-88
2021/11/15 01:12:19;;;;;;;;;14.75;12.75;;;;;14.97;45.63;99519.63;4801434;29;102336;-89
2021/11/15 01:14:47;;;;;;;;;17.75;12.75;;;;;14.98;45.63;99511.25;4789303;29;110220;-90
2021/11/15 01:17:14;;;;;;;;;12.00;10.75;;;;;14.99;46.05;99517.56;4799365;29;102739;-88
2021/11/15 01:19:41;;;;;;;;;10.00;10.00;;;;;14.99;46.07;99512.09;4808026;29;104170;-88
2021/11/15 01:22:09;;;;;;;;;15.00;11.25;;;;;15.01;45.82;99515.44;4802481;29;103861;-89
2021/11/15 01:24:36;;;;;;;;;13.75;12.00;;;;;15.01;45.51;99510.00;4782502;29;103008;-89
2021/11/15 01:27:04;;;;;;;;;12.75;11.00;;;;;15.01;45.90;99513.56;4800190;29;103858;-88
2021/11/15 01:29:31;;;;;;;;;16.00;11.75;;;;;15.01;45.73;99516.28;4809255;29;103978;-90
2021/11/15 01:32:00;;;;;;;;;15.25;13.50;;;;;15.02;46.09;99517.13;4793503;29;105035;-89
2021/11/15 01:34:28;;;;;;;;;15.25;11.50;;;;;15.02;45.65;99514.41;4748710;29;103792;-89
2021/11/15 01:36:56;;;;;;;;;15.50;10.00;;;;;15.02;46.10;99517.97;4783792;29;102336;-89
2021/11/15 01:39:24;;;;;;;;;11.50;10.00;;;;;15.03;46.19;99516.09;4772437;29;104116;-89
2021/11/15 01:41:52;;;;;;;;;14.25;13.50;;;;;15.02;45.66;99528.88;4783836;29;102432;-89
2021/11/15 01:44:19;;;;;;;;;11.00;9.25;;;;;15.03;45.65;99516.94;4787557;29;102311;-88
2021/11/15 01:46:46;;;;;;;;;10.50;10.00;;;;;15.04;45.89;99532.22;4799248;29;102236;-89
2021/11/15 01:49:13;;;;;;;;;11.25;9.50;;;;;15.05;45.99;99527.59;4799751;29;104128;-88
2021/11/15 01:51:43;;;;;;;;;9.25;9.00;;;;;15.04;46.33;99524.03;4804802;29;102409;-88
2021/11/15 01:54:10;;;;;;;;;14.25;9.25;;;;;15.04;45.78;99532.22;4779481;29;103158;-89
2021/11/15 01:56:37;;;;;;;;;12.50;10.25;;;;;15.03;46.03;99530.56;4778491;29;102631;-90
2021/11/15 01:59:04;;;;;;;;;13.75;10.00;;;;;15.05;45.97;99527.59;4777731;29;104158;-89
2021/11/15 02:01:31;;;;;;;;;12.00;10.25;;;;;15.03;45.97;99535.16;4751678;29;102456;-89
2021/11/15 02:03:58;;;;;;;;;11.50;10.00;;;;;15.04;45.65;99536.84;4729918;29;102969;-89
2021/11/15 02:06:25;;;;;;;;;10.50;9.25;;;;;15.02;45.79;99528.88;4782492;29;102702;-89
2021/11/15 02:08:52;;;;;;;;;14.00;11.25;;;;;15.02;45.49;99537.03;4770265;29;104477;-89
2021/11/15 02:11:20;;;;;;;;;11.75;9.50;;;;;15.02;45.63;99539.75;4787451;29;102902;-89
2021/11/15 02:13:47;;;;;;;;;14.25;11.00;;;;;15.02;45.97;99531.59;4801156;28;104127;-89
2021/11/15 02:16:14;;;;;;;;;11.00;9.50;;;;;15.02;46.08;99536.19;4783404;29;103195;-88
2021/11/15 02:18:42;;;;;;;;;10.00;8.75;;;;;15.02;45.69;99542.47;4801859;29;105004;-88
2021/11/15 02:21:09;;;;;;;;;14.75;11.75;;;;;15.00;45.83;99536.41;4819536;28;102482;-89
2021/11/15 02:23:39;;;;;;;;;14.00;11.00;;;;;15.00;45.60;99536.41;4818866;28;102202;-88
2021/11/15 02:26:06;;;;;;;;;14.75;10.75;;;;;15.00;45.51;99538.28;4806138;29;102601;-88
2021/11/15 02:28:36;;;;;;;;;15.50;11.50;;;;;14.99;45.99;99548.34;4812642;28;105120;-89
2021/11/15 02:31:05;;;;;;;;;11.25;10.00;;;;;15.00;45.90;99535.56;4821975;28;102554;-89
2021/11/15 02:33:32;;;;;;;;;15.00;11.00;;;;;14.99;45.78;99537.47;4807592;28;102533;-89
2021/11/15 02:35:59;;;;;;;;;10.25;9.00;;;;;14.99;45.87;99553.81;4812069;28;103536;-90
2021/11/15 02:38:27;;;;;;;;;11.00;9.00;;;;;14.99;45.66;99551.09;4809260;29;104229;-89
2021/11/15 02:40:54;;;;;;;;;9.00;9.00;;;;;14.97;45.83;99542.25;4790815;28;102570;-89
2021/11/15 02:43:21;;;;;;;;;11.25;9.00;;;;;14.98;45.74;99543.94;4808623;29;110502;-89
2021/11/15 02:45:51;;;;;;;;;13.50;9.50;;;;;14.99;45.80;99547.50;4825521;29;102426;-89
2021/11/15 02:48:21;;;;;;;;;10.00;9.00;;;;;14.98;45.55;99549.41;4813330;28;103743;-89
2021/11/15 02:50:48;;;;;;;;;7.25;7.00;;;;;14.97;46.06;99544.97;4818264;28;102301;-89
2021/11/15 02:53:15;;;;;;;;;10.00;9.25;;;;;14.96;45.73;99554.19;4815426;28;102480;-89
2021/11/15 02:55:43;;;;;;;;;11.00;9.00;;;;;14.97;45.98;99553.16;4792173;29;103338;-89
2021/11/15 02:58:11;;;;;;;;;10.75;9.00;;;;;14.96;46.01;99539.75;4797359;28;104282;-89
2021/11/15 03:00:57;;;;;;;;;12.00;10.00;;;;;14.96;45.94;99546.03;4815739;28;102624;-89
2021/11/15 03:03:25;;;;;;;;;13.75;10.75;;;;;14.97;45.83;99547.72;4774921;28;102238;-89
2021/11/15 03:05:52;;;;;;;;;10.50;9.50;;;;;14.96;45.84;99546.03;4794954;28;102759;-89
2021/11/15 03:08:20;;;;;;;;;8.75;8.25;;;;;14.96;45.63;99548.75;4796967;29;104293;-89
2021/11/15 03:10:48;;;;;;;;;11.50;9.50;;;;;14.98;45.61;99543.09;4803744;29;102243;-89
2021/11/15 03:13:16;;;;;;;;;12.00;9.00;;;;;14.98;46.20;99543.94;4779434;29;102722;-89
2021/11/15 03:15:45;;;;;;;;;7.75;7.75;;;;;15.01;45.73;99550.84;4796655;29;103078;-89
2021/11/15 03:18:16;;;;;;;;;10.00;7.50;;;;;15.01;46.22;99545.41;4812692;28;104075;-89
2021/11/15 03:20:45;;;;;;;;;7.75;7.00;;;;;15.01;45.87;99548.97;4819458;28;103041;-89
2021/11/15 03:23:18;;;;;;;;;13.50;10.00;;;;;15.01;45.90;99543.53;4784828;29;102221;-89
2021/11/15 03:25:46;;;;;;;;;9.75;8.25;;;;;15.01;45.58;99542.69;4811308;29;102164;-89
2021/11/15 03:28:14;;;;;;;;;10.25;9.00;;;;;15.02;45.98;99544.38;4818699;28;104064;-89
2021/11/15 03:30:41;;;;;;;;;9.25;9.25;;;;;15.01;46.09;99548.97;4814036;29;102224;-89
2021/11/15 03:33:09;;;;;;;;;9.75;9.00;;;;;15.03;46.20;99548.78;4828326;28;102554;-89
2021/11/15 03:35:37;;;;;;;;;9.00;8.50;;;;;15.03;45.75;99552.34;4809319;29;104635;-89
2021/11/15 03:38:05;;;;;;;;;11.75;10.00;;;;;15.02;45.80;99550.66;4790351;28;109401;-89
2021/11/15 03:40:32;;;;;;;;;8.75;8.25;;;;;15.02;45.74;99558.00;4824656;28;102592;-89
2021/11/15 03:43:00;;;;;;;;;11.00;10.00;;;;;15.03;45.81;99551.50;4797673;28;102659;-88
2021/11/15 03:45:28;;;;;;;;;12.50;11.25;;;;;15.03;45.63;99559.66;4792067;29;102352;-89
2021/11/15 03:47:55;;;;;;;;;11.50;7.75;;;;;15.05;45.80;99552.13;4823174;28;104014;-90
2021/11/15 03:50:23;;;;;;;;;8.75;7.25;;;;;15.03;45.76;99556.94;4809093;29;102784;-89
2021/11/15 03:52:53;;;;;;;;;8.00;7.00;;;;;15.02;45.95;99555.25;4821944;28;102496;-89
2021/11/15 03:55:20;;;;;;;;;10.25;9.00;;;;;15.04;45.76;99545.00;4824866;28;102529;-89
2021/11/15 03:57:48;;;;;;;;;10.00;10.00;;;;;15.04;46.07;99536.84;4814285;28;104576;-89
2021/11/15 04:00:18;;;;;;;;;8.75;8.75;;;;;15.04;45.53;99537.66;4821864;28;102411;-90
2021/11/15 04:02:49;;;;;;;;;9.75;8.50;;;;;15.05;46.00;99543.94;4816730;28;102160;-89
2021/11/15 04:05:26;;;;;;;;;9.00;7.50;;;;;15.04;45.78;99534.94;4802807;29;111056;-89
2021/11/15 04:07:53;;;;;;;;;9.50;8.25;;;;;15.03;45.60;99544.16;4821527;28;104063;-90
2021/11/15 04:10:26;;;;;;;;;9.50;9.00;;;;;15.03;46.07;99544.16;4804322;29;102632;-90
2021/11/15 04:12:54;;;;;;;;;8.75;8.50;;;;;15.03;45.61;99546.91;4806003;29;102619;-90
2021/11/15 04:15:24;;;;;;;;;11.00;9.25;;;;;15.02;45.73;99542.47;4788331;29;102852;-90
2021/11/15 04:17:51;;;;;;;;;10.00;10.00;;;;;15.02;45.97;99547.94;4786459;29;103815;-90
2021/11/15 04:20:19;;;;;;;;;8.75;8.00;;;;;15.02;46.05;99553.38;4794797;29;102309;-89
2021/11/15 04:22:46;;;;;;;;;12.00;8.00;;;;;15.00;46.20;99552.72;4789916;29;103413;-90
2021/11/15 04:25:13;;;;;;;;;10.25;8.75;;;;;14.98;45.76;99549.41;4804629;29;102523;-89
2021/11/15 04:27:40;;;;;;;;;9.50;8.00;;;;;14.99;45.65;99548.34;4823734;28;104314;-89
2021/11/15 04:30:09;;;;;;;;;12.00;9.25;;;;;14.99;46.04;99548.34;4817870;28;105002;-85
2021/11/15 04:32:38;;;;;;;;;13.00;9.75;;;;;14.99;45.75;99539.34;4833864;28;102561;-90
2021/11/15 04:35:10;;;;;;;;;10.00;9.00;;;;;14.99;46.01;99537.47;4808860;29;102477;-90
2021/11/15 04:37:38;;;;;;;;;10.50;7.25;;;;;14.99;45.52;99542.06;4794341;29;108654;-90
2021/11/15 04:40:05;;;;;;;;;7.50;7.00;;;;;14.98;45.77;99543.09;4800057;28;102292;-89
2021/11/15 04:42:33;;;;;;;;;8.50;7.25;;;;;14.97;45.60;99542.25;4821616;28;102510;-90
2021/11/15 04:45:00;;;;;;;;;9.00;8.00;;;;;14.96;45.91;99535.13;4796888;29;104557;-90
2021/11/15 04:47:27;;;;;;;;;8.25;8.00;;;;;14.95;45.66;99549.78;4791376;28;104080;-90
2021/11/15 04:49:54;;;;;;;;;8.75;7.75;;;;;14.94;45.41;99536.41;4823837;29;102183;-90
2021/11/15 04:52:21;;;;;;;;;10.00;7.75;;;;;14.94;46.12;99537.25;4817524;28;102532;-90
2021/11/15 04:54:51;;;;;;;;;8.75;8.75;;;;;14.96;45.72;99540.56;4815699;28;102931;-89
2021/11/15 04:57:18;;;;;;;;;8.25;7.00;;;;;14.96;46.00;99534.28;4818823;29;104252;-90
2021/11/15 04:59:46;;;;;;;;;9.50;8.00;;;;;14.95;45.36;99533.44;4797301;29;102586;-89
2021/11/15 05:02:14;;;;;;;;;10.00;7.75;;;;;14.95;46.05;99533.44;4817821;28;106177;-90
2021/11/15 05:04:42;;;;;;;;;10.25;7.25;;;;;14.94;45.52;99537.25;4802513;29;102618;-89
2021/11/15 05:07:09;;;;;;;;;8.00;8.00;;;;;14.95;45.94;99532.63;4797187;29;105205;-90
2021/11/15 05:09:36;;;;;;;;;9.50;8.00;;;;;14.95;45.76;99533.44;4800728;29;103288;-90
2021/11/15 05:12:03;;;;;;;;;8.25;7.00;;;;;14.94;45.75;99536.41;4793015;29;104296;-90
2021/11/15 05:14:30;;;;;;;;;8.00;7.50;;;;;14.94;45.42;99533.66;4779450;29;104837;-90
2021/11/15 05:16:58;;;;;;;;;9.00;7.00;;;;;14.93;45.42;99538.28;4779270;29;104454;-90
2021/11/15 05:19:25;;;;;;;;;6.25;6.25;;;;;14.93;46.03;99537.44;4798176;29;102545;-89
2021/11/15 05:21:52;;;;;;;;;7.25;6.25;;;;;14.90;46.66;99540.56;4789044;29;102423;-89
2021/11/15 05:24:23;;;;;;;;;8.00;7.00;;;;;14.90;46.45;99538.69;4771881;29;102552;-89
2021/11/15 05:26:50;;;;;;;;;9.50;9.00;;;;;14.91;45.67;99543.06;4770425;29;103778;-90
2021/11/15 05:29:17;;;;;;;;;8.75;7.00;;;;;14.88;46.04;99540.78;4774256;29;103541;-90
2021/11/15 05:31:45;;;;;;;;;9.00;8.00;;;;;14.86;45.90;99540.13;4787866;29;103789;-90
2021/11/15 05:34:12;;;;;;;;;7.75;6.75;;;;;14.87;45.53;99547.25;4795476;29;102669;-89
2021/11/15 05:36:39;;;;;;;;;9.75;9.25;;;;;14.89;46.02;99544.34;4783845;29;104404;-85
2021/11/15 05:39:06;;;;;;;;;8.75;7.50;;;;;14.89;46.16;99555.22;4801724;29;106266;-89
2021/11/15 05:41:33;;;;;;;;;8.00;7.00;;;;;14.88;46.01;99556.28;4784984;29;102507;-89
2021/11/15 05:44:00;;;;;;;;;10.50;6.00;;;;;14.88;46.50;99548.09;4804246;29;102659;-89
2021/11/15 05:46:30;;;;;;;;;11.25;7.00;;;;;14.89;46.09;99556.06;4783800;29;104252;-89
2021/11/15 05:48:57;;;;;;;;;8.50;7.25;;;;;14.89;45.98;99552.50;4792196;29;102472;-90
2021/11/15 05:51:25;;;;;;;;;8.00;7.25;;;;;14.90;46.29;99563.22;4785050;29;104338;-90
2021/11/15 05:53:52;;;;;;;;;5.00;5.00;;;;;14.91;45.91;99558.56;4785381;29;102603;-90
2021/11/15 05:56:19;;;;;;;;;7.00;6.00;;;;;14.92;46.08;99563.81;4783131;29;104686;-89
2021/11/15 05:58:46;;;;;;;;;10.50;7.00;;;;;14.92;46.27;99566.53;4804069;29;102499;-89
2021/11/15 06:01:13;;;;;;;;;7.00;6.75;;;;;14.94;46.04;99575.38;4796366;29;103424;-89
2021/11/15 06:03:43;;;;;;;;;7.50;7.00;;;;;14.95;46.03;99577.03;4790819;29;102759;-89
2021/11/15 06:06:10;;;;;;;;;7.00;6.00;;;;;14.96;45.94;99581.44;4782444;29;104216;-87
2021/11/15 06:08:37;;;;;;;;;7.75;7.50;;;;;14.98;45.70;99581.25;4813458;29;102160;-89
2021/11/15 06:11:04;;;;;;;;;8.50;7.75;;;;;14.99;45.94;99585.66;4818311;29;102451;-90
2021/11/15 06:13:32;;;;;;;;;7.25;7.00;;;;;15.00;45.60;99593.59;4798464;29;102664;-90
2021/11/15 06:15:59;;;;;;;;;9.00;8.00;;;;;15.01;46.16;99599.88;4798698;29;104092;-90
2021/11/15 06:18:26;;;;;;;;;9.75;7.75;;;;;15.02;46.05;99599.69;4800061;29;102572;-89
2021/11/15 06:20:53;;;;;;;;;7.50;6.75;;;;;15.03;45.81;99595.09;4801481;29;102299;-89
2021/11/15 06:23:20;;;;;;;;;7.75;6.50;;;;;15.03;45.85;99592.34;4824261;29;103292;-90
2021/11/15 06:25:47;;;;;;;;;8.00;7.50;;;;;15.04;45.59;99592.13;4824062;29;105240;-89
2021/11/15 06:28:14;;;;;;;;;8.00;7.00;;;;;15.03;45.99;99590.47;4807304;28;103018;-89
2021/11/15 06:30:41;;;;;;;;;8.50;7.00;;;;;15.03;46.03;99593.19;4828558;29;102400;-89
2021/11/15 06:33:10;;;;;;;;;8.50;7.00;;;;;15.04;46.01;99597.56;4827962;29;102767;-89
2021/11/15 06:35:37;;;;;;;;;8.00;6.00;;;;;15.05;45.70;99592.97;4811507;29;104081;-90
2021/11/15 06:38:04;;;;;;;;;5.75;5.75;;;;;15.04;46.08;99597.56;4822891;29;102699;-90
2021/11/15 06:40:31;;;;;;;;;8.25;6.50;;;;;15.04;45.90;99589.41;4822699;29;103391;-89
2021/11/15 06:42:58;;;;;;;;;5.00;5.00;;;;;15.04;45.76;99592.13;4823712;28;102172;-89
2021/11/15 06:45:26;;;;;;;;;7.75;7.75;;;;;15.03;46.26;99585.03;4816242;29;104286;-90
2021/11/15 06:47:54;;;;;;;;;8.50;6.50;;;;;15.04;45.58;99592.13;4814420;29;102184;-90
2021/11/15 06:50:24;;;;;;;;;10.50;7.50;;;;;15.05;46.02;99599.25;4819974;28;102451;-90
2021/11/15 06:52:51;;;;;;;;;6.00;6.00;;;;;15.06;45.03;99590.06;4815576;29;102566;-90
2021/11/15 06:55:20;;;;;;;;;5.75;5.50;;;;;15.06;45.58;99590.06;4818442;29;104130;-90
2021/11/15 06:57:48;;;;;;;;;6.50;6.00;;;;;15.06;45.54;99591.94;4793574;29;102190;-90
2021/11/15 07:00:18;;;;;;;;;7.00;6.00;;;;;15.06;45.60;99594.66;4808210;29;104753;-88
2021/11/15 07:02:46;;;;;;;;;6.50;6.50;;;;;15.05;45.73;99599.25;4824259;28;102696;-90
2021/11/15 07:05:15;;;;;;;;;5.25;5.00;;;;;15.04;45.67;99591.31;4800903;29;104325;-90
2021/11/15 07:07:42;;;;;;;;;8.00;6.25;;;;;15.03;45.78;99595.09;4803646;29;102728;-89
2021/11/15 07:10:10;;;;;;;;;7.00;5.75;;;;;15.04;45.66;99600.31;4811322;28;103585;-89
2021/11/15 07:12:37;;;;;;;;;6.00;5.25;;;;;15.02;45.59;99598.84;4825165;29;102432;-90
2021/11/15 07:15:05;;;;;;;;;6.00;5.50;;;;;15.03;45.98;99603.25;4803827;29;106534;-90
2021/11/15 07:17:32;;;;;;;;;6.50;5.25;;;;;15.03;45.88;99611.44;4803070;29;105042;-89
2021/11/15 07:19:59;;;;;;;;;10.00;7.50;;;;;15.01;45.52;99608.91;4814600;29;102531;-90
2021/11/15 07:22:29;;;;;;;;;6.25;6.25;;;;;15.01;45.65;99608.91;4816881;29;102611;-90
2021/11/15 07:24:56;;;;;;;;;5.50;4.50;;;;;15.01;45.91;99608.91;4821223;29;104120;-90
2021/11/15 07:27:23;;;;;;;;;12.25;8.00;;;;;15.02;45.93;99612.47;4816395;29;102652;-90
2021/11/15 07:29:51;;;;;;;;;6.50;5.50;;;;;15.01;46.03;99608.91;4824748;29;102077;-89
2021/11/15 07:32:18;;;;;;;;;8.00;7.00;;;;;14.99;46.13;99611.00;4802564;29;102281;-90
2021/11/15 07:34:45;;;;;;;;;8.75;6.75;;;;;14.99;45.74;99616.44;4809221;29;105061;-88
2021/11/15 07:37:12;;;;;;;;;7.25;6.00;;;;;15.00;45.36;99611.81;4811137;29;102629;-89
2021/11/15 07:39:42;;;;;;;;;8.25;6.75;;;;;14.98;45.73;99609.31;4807987;29;103824;-89
2021/11/15 07:42:14;;;;;;;;;6.25;6.25;;;;;15.00;45.56;99611.81;4821790;28;102210;-88
2021/11/15 07:44:42;;;;;;;;;8.50;6.75;;;;;14.98;45.63;99609.31;4803327;29;103472;-89
2021/11/15 07:47:09;;;;;;;;;5.50;5.00;;;;;14.99;46.43;99599.25;4781495;29;102488;-89
2021/11/15 07:49:36;;;;;;;;;8.25;6.25;;;;;14.99;45.80;99605.56;4820328;28;104320;-90
2021/11/15 07:52:03;;;;;;;;;7.25;6.50;;;;;14.98;45.53;99603.03;4805753;29;102735;-89
2021/11/15 07:54:30;;;;;;;;;6.75;5.75;;;;;14.99;45.50;99602.00;4817042;29;104028;-89
2021/11/15 07:56:57;;;;;;;;;5.50;5.00;;;;;14.98;46.02;99606.59;4822571;29;102085;-90
2021/11/15 07:59:24;;;;;;;;;5.75;5.75;;;;;14.98;45.67;99605.75;4804332;29;102341;-89
2021/11/15 08:01:51;;;;;;;;;6.50;6.50;;;;;14.99;45.45;99613.72;4816576;29;102473;-89
2021/11/15 08:04:19;;;;;;;;;8.50;7.00;;;;;14.98;45.86;99603.88;4817573;29;104073;-89
2021/11/15 08:06:46;;;;;;;;;5.25;5.25;;;;;14.99;45.56;99602.00;4818041;28;102296;-89
2021/11/15 08:09:13;;;;;;;;;6.75;5.75;;;;;14.98;45.65;99603.03;4814874;29;102189;-89
2021/11/15 08:11:43;;;;;;;;;5.25;5.25;;;;;14.97;45.50;99609.50;4826209;29;102683;-89
2021/11/15 08:14:11;;;;;;;;;8.75;5.00;;;;;14.98;46.22;99603.88;4792188;29;108984;-89
2021/11/15 08:16:38;;;;;;;;;8.50;7.00;;;;;14.99;45.69;99605.56;4792288;29;103091;-89
2021/11/15 08:19:06;;;;;;;;;8.25;6.00;;;;;15.00;45.78;99598.19;4818876;29;102108;-89
2021/11/15 08:21:33;;;;;;;;;6.25;5.75;;;;;15.00;45.69;99596.31;4818721;29;102239;-89
2021/11/15 08:24:29;;;;;;;;;5.00;4.00;;;;;15.01;45.32;99603.44;4810537;28;104090;-89
2021/11/15 08:27:00;;;;;;;;;5.75;5.00;;;;;15.00;45.63;99600.91;4734574;29;102863;-90
2021/11/15 08:29:27;;;;;;;;;7.00;4.75;;;;;15.00;45.85;99606.38;4802876;29;104339;-89
2021/11/15 08:31:57;;;;;;;;;4.50;4.50;;;;;15.00;45.81;99601.75;4814576;29;102931;-89
2021/11/15 08:34:27;;;;;;;;;6.50;6.25;;;;;15.00;45.98;99596.31;4814559;29;104078;-88
2021/11/15 08:36:54;;;;;;;;;5.25;3.25;;;;;14.99;45.85;99600.09;4789861;29;102277;-90
2021/11/15 08:39:23;;;;;;;;;6.25;6.00;;;;;14.99;45.62;99594.66;4820227;29;102747;-89
2021/11/15 08:41:55;;;;;;;;;4.00;4.00;;;;;14.99;46.02;99596.53;4811777;29;102703;-90
2021/11/15 08:44:22;;;;;;;;;8.50;7.00;;;;;14.99;46.04;99600.09;4815616;29;104076;-88
2021/11/15 08:46:51;;;;;;;;;5.25;5.00;;;;;14.99;45.55;99602.84;4805660;29;103447;-89
2021/11/15 08:49:22;;;;;;;;;5.75;5.00;;;;;14.99;45.82;99616.44;4818716;29;102204;-88
2021/11/15 08:51:49;;;;;;;;;4.75;4.75;;;;;14.99;45.74;99615.59;4810539;29;102216;-88
2021/11/15 08:54:17;;;;;;;;;6.50;5.75;;;;;14.98;45.93;99620.22;4818427;29;104399;-89
2021/11/15 08:56:46;;;;;;;;;6.75;5.50;;;;;14.98;45.55;99613.91;4788890;29;102812;-89
2021/11/15 08:59:33;;;;;;;;;6.00;6.00;;;;;14.97;45.84;99618.53;4793127;29;102633;-90
2021/11/15 09:02:00;;;;;;;;;7.25;6.75;;;;;14.98;45.82;99619.38;4827668;29;102499;-89
2021/11/15 09:04:27;;;;;;;;;5.75;5.00;;;;;15.00;45.42;99623.53;4825462;28;104210;-90
2021/11/15 09:06:54;;;;;;;;;9.50;6.00;;;;;15.00;45.76;99628.16;4807836;29;102775;-90
2021/11/15 09:09:27;;;;;;;;;5.75;5.00;;;;;14.98;45.92;99625.66;4824967;29;103840;-89
2021/11/15 09:11:55;;;;;;;;;6.75;5.75;;;;;14.98;45.57;99624.81;4799254;29;102306;-89
2021/11/15 09:14:23;;;;;;;;;5.50;5.50;;;;;14.97;45.60;99623.97;4797112;29;103948;-89
2021/11/15 09:16:51;;;;;;;;;4.75;4.00;;;;;14.98;45.99;99633.81;4823411;29;101993;-89
2021/11/15 09:19:19;;;;;;;;;6.75;5.25;;;;;14.97;45.54;99634.88;4824268;28;103205;-87
2021/11/15 09:21:46;;;;;;;;;5.75;5.75;;;;;14.97;45.67;99639.47;4823279;28;103096;-89
2021/11/15 09:24:14;;;;;;;;;6.25;5.25;;;;;14.97;46.05;99640.31;4808596;29;104080;-89
2021/11/15 09:26:42;;;;;;;;;6.50;5.00;;;;;14.96;46.07;99637.78;4811437;29;102463;-90
2021/11/15 09:29:10;;;;;;;;;6.75;5.25;;;;;14.94;45.78;99629.84;4787912;29;102724;-89
2021/11/15 09:31:38;;;;;;;;;8.50;7.50;;;;;14.96;45.85;99627.72;4806750;28;107676;-89
2021/11/15 09:34:07;;;;;;;;;5.75;5.00;;;;;14.95;45.50;99619.78;4822891;28;106967;-89
2021/11/15 09:36:34;;;;;;;;;5.00;4.50;;;;;14.95;45.82;99625.22;4817992;28;103489;-90
2021/11/15 09:39:02;;;;;;;;;5.00;4.50;;;;;14.95;45.86;99626.03;4826965;28;102263;-89
2021/11/15 09:41:29;;;;;;;;;5.00;4.50;;;;;14.95;46.07;99627.97;4829192;29;102334;-89
2021/11/15 09:43:56;;;;;;;;;5.50;5.00;;;;;14.97;45.62;99628.56;4805689;29;104224;-89
2021/11/15 09:46:26;;;;;;;;;5.25;5.00;;;;;14.96;45.74;99622.28;4811796;28;102309;-89
2021/11/15 09:48:59;;;;;;;;;6.00;4.25;;;;;14.98;46.28;99617.47;4810466;29;102203;-89
2021/11/15 09:51:26;;;;;;;;;6.75;6.75;;;;;15.00;45.60;99618.09;4818316;28;102556;-89
2021/11/15 09:53:54;;;;;;;;;4.75;4.00;;;;;15.02;45.73;99618.75;4800320;29;104053;-90
2021/11/15 09:56:23;;;;;;;;;8.00;6.50;;;;;15.02;45.95;99612.47;4810773;29;102063;-89
2021/11/15 09:58:50;;;;;;;;;6.00;5.00;;;;;15.03;45.97;99609.53;4809979;29;102324;-89
2021/11/15 10:01:17;;;;;;;;;5.00;5.00;;;;;15.05;46.02;99609.31;4819490;28;102563;-89
2021/11/15 10:03:45;;;;;;;;;6.75;5.00;;;;;15.07;45.83;99609.97;4823333;29;104062;-88
2021/11/15 10:06:12;;;;;;;;;6.00;5.00;;;;;15.06;45.89;99603.69;4823094;28;102792;-89
2021/11/15 10:08:49;;;;;;;;;5.00;5.00;;;;;15.07;45.90;99602.63;4817949;28;103963;-89
2021/11/15 10:11:21;;;;;;;;;7.00;6.00;;;;;15.08;46.04;99609.75;4823184;29;102525;-89
2021/11/15 10:13:52;;;;;;;;;5.00;5.00;;;;;15.10;45.88;99602.22;4808742;29;104102;-89
2021/11/15 10:16:25;;;;;;;;;5.00;4.00;;;;;15.10;45.99;99602.22;4800406;29;103021;-89
2021/11/15 10:19:00;;;;;;;;;5.00;5.00;;;;;15.10;46.13;99607.66;4805075;28;102818;-89
2021/11/15 10:21:42;;;;;;;;;4.00;4.00;;;;;15.10;46.18;99607.66;4824166;29;102223;-89
2021/11/15 10:24:10;;;;;;;;;5.75;5.00;;;;;15.11;46.12;99609.34;4803241;29;108826;-90
2021/11/15 10:26:55;;;;;;;;;5.00;4.00;;;;;15.10;45.91;99607.66;4821168;28;102260;-90
2021/11/15 10:29:34;;;;;;;;;6.25;4.00;;;;;15.11;45.84;99598.44;4826154;29;102424;-89
2021/11/15 10:32:11;;;;;;;;;4.75;4.75;;;;;15.11;45.74;99603.91;4826199;28;102270;-89
2021/11/15 10:34:44;;;;;;;;;5.75;5.00;;;;;15.10;46.03;99596.75;4805296;29;104073;-89
2021/11/15 10:37:22;;;;;;;;;5.00;4.75;;;;;15.12;46.11;99602.03;4818184;28;103097;-90
2021/11/15 10:39:52;;;;;;;;;5.25;5.00;;;;;15.12;45.91;99605.59;4808937;29;102177;-89
2021/11/15 10:42:22;;;;;;;;;6.00;5.75;;;;;15.12;45.93;99602.03;4818099;29;102605;-89
2021/11/15 10:44:58;;;;;;;;;5.00;4.25;;;;;15.11;46.08;99609.34;4819400;29;104363;-89
2021/11/15 10:47:27;;;;;;;;;6.00;4.25;;;;;15.11;45.81;99608.50;4832415;29;102426;-89
2021/11/15 10:50:23;;;;;;;;;5.00;4.25;;;;;15.11;45.87;99609.34;4821393;28;102184;-90
2021/11/15 10:53:03;;;;;;;;;5.00;5.00;;;;;15.12;46.08;99621.09;4817886;28;103737;-89
2021/11/15 10:55:31;;;;;;;;;6.00;5.00;;;;;15.10;45.99;99613.09;4803364;28;104350;-89
2021/11/15 10:57:59;;;;;;;;;8.00;5.00;;;;;15.11;46.00;99616.69;4825877;29;102433;-90
2021/11/15 11:00:33;;;;;;;;;5.00;4.75;;;;;15.10;46.07;99613.09;4805181;29;102394;-90
2021/11/15 11:03:25;;;;;;;;;6.00;5.25;;;;;15.09;45.92;99610.59;4826896;28;102026;-89
2021/11/15 11:05:53;;;;;;;;;4.50;3.75;;;;;15.10;45.94;99618.56;4822288;29;108923;-89
2021/11/15 11:08:25;;;;;;;;;4.25;4.00;;;;;15.10;46.21;99615.00;4820237;28;102471;-89
2021/11/15 11:11:08;;;;;;;;;5.25;5.00;;;;;15.10;45.67;99612.28;4789185;29;102728;-89
2021/11/15 11:14:04;;;;;;;;;5.75;5.00;;;;;15.10;46.19;99613.09;4823720;28;102703;-89
2021/11/15 11:16:39;;;;;;;;;5.50;4.50;;;;;15.10;45.89;99609.53;4802543;29;109528;-89
2021/11/15 11:24:20;;;;;;;;;0.00;0.00;;;;;15.09;45.99;99611.44;4797799;29;102537;-89
2021/11/15 11:26:50;;;;;;;;;6.50;5.75;;;;;15.09;45.95;99613.31;4826201;29;105875;-89
2021/11/15 11:29:21;;;;;;;;;4.00;3.75;;;;;15.09;45.69;99605.97;4761051;29;102600;-89
2021/11/15 11:31:51;;;;;;;;;4.00;4.00;;;;;15.08;46.08;99612.47;4804404;28;102184;-89
2021/11/15 11:34:19;;;;;;;;;6.25;5.50;;;;;15.09;46.09;99608.69;4822270;29;102224;-89